sensor_id;sensor_type;location;lat;lon;timestamp;P1;durP1;ratioP1;P2;durP2;ratioP2
41333;SDS011;27078;46.428;6.256;2023-07-13T00:01:15;2.90;;;1.10;;
41333;SDS011;27078;46.428;6.256;2023-07-13T00:03:41;2.05;;;1.00;;
41333;SDS011;27078;46.428;6.256;2023-07-13T00:06:07;1.55;;;0.98;;
41333;SDS011;27078;46.428;6.256;2023-07-13T00:08:33;2.65;;;1.10;;
41333;SDS011;27078;46.428;6.256;2023-07-13T00:11:00;1.80;;;0.80;;
41333;SDS011;27078;46.428;6.256;2023-07-13T00:13:29;1.77;;;0.80;;
41333;SDS011;27078;46.428;6.256;2023-07-13T00:15:56;2.22;;;0.70;;
41333;SDS011;27078;46.428;6.256;2023-07-13T00:18:23;1.27;;;0.70;;
41333;SDS011;27078;46.428;6.256;2023-07-13T00:20:49;1.45;;;0.80;;
41333;SDS011;27078;46.428;6.256;2023-07-13T00:23:15;2.33;;;0.80;;
41333;SDS011;27078;46.428;6.256;2023-07-13T00:25:40;2.03;;;0.70;;
41333;SDS011;27078;46.428;6.256;2023-07-13T00:28:05;2.45;;;0.70;;
41333;SDS011;27078;46.428;6.256;2023-07-13T00:30:31;3.35;;;0.90;;
41333;SDS011;27078;46.428;6.256;2023-07-13T00:32:56;1.80;;;0.80;;
41333;SDS011;27078;46.428;6.256;2023-07-13T00:35:22;1.45;;;0.80;;
41333;SDS011;27078;46.428;6.256;2023-07-13T00:37:48;2.85;;;1.20;;
41333;SDS011;27078;46.428;6.256;2023-07-13T00:40:13;2.25;;;0.90;;
41333;SDS011;27078;46.428;6.256;2023-07-13T00:42:42;2.92;;;0.90;;
41333;SDS011;27078;46.428;6.256;2023-07-13T00:47:36;2.50;;;1.00;;
41333;SDS011;27078;46.428;6.256;2023-07-13T00:50:01;1.70;;;0.88;;
41333;SDS011;27078;46.428;6.256;2023-07-13T00:52:28;2.17;;;0.70;;
41333;SDS011;27078;46.428;6.256;2023-07-13T00:54:54;2.25;;;0.80;;
41333;SDS011;27078;46.428;6.256;2023-07-13T00:57:20;1.92;;;0.70;;
41333;SDS011;27078;46.428;6.256;2023-07-13T00:59:47;1.65;;;0.60;;
41333;SDS011;27078;46.428;6.256;2023-07-13T01:02:16;1.40;;;0.70;;
41333;SDS011;27078;46.428;6.256;2023-07-13T01:04:43;1.60;;;0.57;;
41333;SDS011;27078;46.428;6.256;2023-07-13T01:07:08;1.55;;;0.50;;
41333;SDS011;27078;46.428;6.256;2023-07-13T01:09:34;1.95;;;0.60;;
41333;SDS011;27078;46.428;6.256;2023-07-13T01:12:00;1.65;;;0.40;;
41333;SDS011;27078;46.428;6.256;2023-07-13T01:14:26;1.05;;;0.55;;
41333;SDS011;27078;46.428;6.256;2023-07-13T01:16:51;1.00;;;0.60;;
41333;SDS011;27078;46.428;6.256;2023-07-13T01:19:29;2.05;;;0.50;;
41333;SDS011;27078;46.428;6.256;2023-07-13T01:22:08;0.68;;;0.40;;
41333;SDS011;27078;46.428;6.256;2023-07-13T01:27:02;0.80;;;0.40;;
41333;SDS011;27078;46.428;6.256;2023-07-13T01:29:28;1.25;;;0.50;;
41333;SDS011;27078;46.428;6.256;2023-07-13T01:31:53;1.35;;;0.40;;
41333;SDS011;27078;46.428;6.256;2023-07-13T01:34:18;1.50;;;0.40;;
41333;SDS011;27078;46.428;6.256;2023-07-13T01:36:44;1.48;;;0.38;;
41333;SDS011;27078;46.428;6.256;2023-07-13T01:39:09;0.80;;;0.30;;
41333;SDS011;27078;46.428;6.256;2023-07-13T01:41:34;1.40;;;0.40;;
41333;SDS011;27078;46.428;6.256;2023-07-13T01:44:00;1.42;;;0.30;;
41333;SDS011;27078;46.428;6.256;2023-07-13T01:46:25;0.90;;;0.40;;
41333;SDS011;27078;46.428;6.256;2023-07-13T01:48:51;0.73;;;0.30;;
41333;SDS011;27078;46.428;6.256;2023-07-13T01:51:17;1.05;;;0.40;;
41333;SDS011;27078;46.428;6.256;2023-07-13T01:53:43;2.00;;;0.30;;
41333;SDS011;27078;46.428;6.256;2023-07-13T01:56:08;0.90;;;0.40;;
41333;SDS011;27078;46.428;6.256;2023-07-13T01:58:34;1.77;;;0.40;;
41333;SDS011;27078;46.428;6.256;2023-07-13T02:00:59;1.50;;;0.40;;
41333;SDS011;27078;46.428;6.256;2023-07-13T02:03:24;0.68;;;0.30;;
41333;SDS011;27078;46.428;6.256;2023-07-13T02:05:49;0.55;;;0.22;;
41333;SDS011;27078;46.428;6.256;2023-07-13T02:08:15;1.48;;;0.40;;
41333;SDS011;27078;46.428;6.256;2023-07-13T02:10:40;2.88;;;0.40;;
41333;SDS011;27078;46.428;6.256;2023-07-13T02:13:06;1.33;;;0.40;;
41333;SDS011;27078;46.428;6.256;2023-07-13T02:15:32;1.40;;;0.43;;
41333;SDS011;27078;46.428;6.256;2023-07-13T02:17:57;0.98;;;0.30;;
41333;SDS011;27078;46.428;6.256;2023-07-13T02:20:24;0.93;;;0.38;;
41333;SDS011;27078;46.428;6.256;2023-07-13T02:22:51;1.40;;;0.40;;
41333;SDS011;27078;46.428;6.256;2023-07-13T02:25:18;0.73;;;0.30;;
41333;SDS011;27078;46.428;6.256;2023-07-13T02:27:44;0.65;;;0.30;;
41333;SDS011;27078;46.428;6.256;2023-07-13T02:30:11;0.90;;;0.40;;
41333;SDS011;27078;46.428;6.256;2023-07-13T02:32:37;1.30;;;0.40;;
41333;SDS011;27078;46.428;6.256;2023-07-13T02:35:02;1.13;;;0.40;;
41333;SDS011;27078;46.428;6.256;2023-07-13T02:37:28;0.40;;;0.30;;
41333;SDS011;27078;46.428;6.256;2023-07-13T02:39:54;1.10;;;0.40;;
41333;SDS011;27078;46.428;6.256;2023-07-13T02:42:20;0.55;;;0.32;;
41333;SDS011;27078;46.428;6.256;2023-07-13T02:44:45;0.45;;;0.32;;
41333;SDS011;27078;46.428;6.256;2023-07-13T02:47:11;2.45;;;0.43;;
41333;SDS011;27078;46.428;6.256;2023-07-13T02:49:39;1.23;;;0.40;;
41333;SDS011;27078;46.428;6.256;2023-07-13T02:52:04;0.85;;;0.28;;
41333;SDS011;27078;46.428;6.256;2023-07-13T02:54:30;0.73;;;0.30;;
41333;SDS011;27078;46.428;6.256;2023-07-13T02:56:56;0.85;;;0.30;;
41333;SDS011;27078;46.428;6.256;2023-07-13T02:59:21;0.60;;;0.25;;
41333;SDS011;27078;46.428;6.256;2023-07-13T03:01:46;0.63;;;0.20;;
41333;SDS011;27078;46.428;6.256;2023-07-13T03:04:12;0.35;;;0.15;;
41333;SDS011;27078;46.428;6.256;2023-07-13T03:06:37;0.50;;;0.10;;
41333;SDS011;27078;46.428;6.256;2023-07-13T03:09:03;0.88;;;0.20;;
41333;SDS011;27078;46.428;6.256;2023-07-13T03:11:29;0.38;;;0.10;;
41333;SDS011;27078;46.428;6.256;2023-07-13T03:13:54;0.50;;;0.20;;
41333;SDS011;27078;46.428;6.256;2023-07-13T03:16:20;0.52;;;0.10;;
41333;SDS011;27078;46.428;6.256;2023-07-13T03:18:46;0.50;;;0.10;;
41333;SDS011;27078;46.428;6.256;2023-07-13T03:21:12;1.65;;;0.10;;
41333;SDS011;27078;46.428;6.256;2023-07-13T03:23:38;0.38;;;0.10;;
41333;SDS011;27078;46.428;6.256;2023-07-13T03:26:04;0.40;;;0.10;;
41333;SDS011;27078;46.428;6.256;2023-07-13T03:28:34;0.85;;;0.10;;
41333;SDS011;27078;46.428;6.256;2023-07-13T03:31:04;0.50;;;0.10;;
41333;SDS011;27078;46.428;6.256;2023-07-13T03:33:31;1.38;;;0.20;;
41333;SDS011;27078;46.428;6.256;2023-07-13T03:35:57;0.20;;;0.10;;
41333;SDS011;27078;46.428;6.256;2023-07-13T03:38:22;0.52;;;0.20;;
41333;SDS011;27078;46.428;6.256;2023-07-13T03:40:47;0.45;;;0.22;;
41333;SDS011;27078;46.428;6.256;2023-07-13T03:43:13;0.75;;;0.20;;
41333;SDS011;27078;46.428;6.256;2023-07-13T03:45:38;0.35;;;0.20;;
41333;SDS011;27078;46.428;6.256;2023-07-13T03:48:04;0.40;;;0.13;;
41333;SDS011;27078;46.428;6.256;2023-07-13T03:50:30;0.60;;;0.30;;
41333;SDS011;27078;46.428;6.256;2023-07-13T03:52:56;0.47;;;0.20;;
41333;SDS011;27078;46.428;6.256;2023-07-13T03:55:22;0.98;;;0.20;;
41333;SDS011;27078;46.428;6.256;2023-07-13T03:57:53;1.00;;;0.20;;
41333;SDS011;27078;46.428;6.256;2023-07-13T04:00:22;0.40;;;0.20;;
41333;SDS011;27078;46.428;6.256;2023-07-13T04:02:48;0.70;;;0.20;;
41333;SDS011;27078;46.428;6.256;2023-07-13T04:05:14;0.50;;;0.20;;
41333;SDS011;27078;46.428;6.256;2023-07-13T04:07:40;0.47;;;0.28;;
41333;SDS011;27078;46.428;6.256;2023-07-13T04:10:05;1.27;;;0.17;;
41333;SDS011;27078;46.428;6.256;2023-07-13T04:12:31;0.35;;;0.20;;
41333;SDS011;27078;46.428;6.256;2023-07-13T04:14:56;0.95;;;0.20;;
41333;SDS011;27078;46.428;6.256;2023-07-13T04:17:23;0.52;;;0.20;;
41333;SDS011;27078;46.428;6.256;2023-07-13T04:19:49;0.28;;;0.10;;
41333;SDS011;27078;46.428;6.256;2023-07-13T04:22:16;0.35;;;0.10;;
41333;SDS011;27078;46.428;6.256;2023-07-13T04:24:41;0.73;;;0.30;;
41333;SDS011;27078;46.428;6.256;2023-07-13T04:27:06;1.67;;;0.20;;
41333;SDS011;27078;46.428;6.256;2023-07-13T04:29:32;1.13;;;0.20;;
41333;SDS011;27078;46.428;6.256;2023-07-13T04:31:57;0.38;;;0.20;;
41333;SDS011;27078;46.428;6.256;2023-07-13T04:34:23;0.70;;;0.20;;
41333;SDS011;27078;46.428;6.256;2023-07-13T04:36:49;0.30;;;0.20;;
41333;SDS011;27078;46.428;6.256;2023-07-13T04:39:14;0.70;;;0.30;;
41333;SDS011;27078;46.428;6.256;2023-07-13T04:41:40;0.50;;;0.10;;
41333;SDS011;27078;46.428;6.256;2023-07-13T04:44:05;0.30;;;0.20;;
41333;SDS011;27078;46.428;6.256;2023-07-13T04:46:31;0.60;;;0.20;;
41333;SDS011;27078;46.428;6.256;2023-07-13T04:48:56;0.55;;;0.20;;
41333;SDS011;27078;46.428;6.256;2023-07-13T04:51:22;0.63;;;0.20;;
41333;SDS011;27078;46.428;6.256;2023-07-13T04:53:48;0.70;;;0.30;;
41333;SDS011;27078;46.428;6.256;2023-07-13T04:56:13;0.65;;;0.30;;
41333;SDS011;27078;46.428;6.256;2023-07-13T04:58:39;0.50;;;0.20;;
41333;SDS011;27078;46.428;6.256;2023-07-13T05:01:05;1.52;;;0.35;;
41333;SDS011;27078;46.428;6.256;2023-07-13T05:03:31;1.40;;;0.40;;
41333;SDS011;27078;46.428;6.256;2023-07-13T05:05:58;1.90;;;0.40;;
41333;SDS011;27078;46.428;6.256;2023-07-13T05:08:24;1.15;;;0.45;;
41333;SDS011;27078;46.428;6.256;2023-07-13T05:10:51;1.63;;;0.40;;
41333;SDS011;27078;46.428;6.256;2023-07-13T05:13:16;3.92;;;0.50;;
41333;SDS011;27078;46.428;6.256;2023-07-13T05:15:44;3.25;;;0.40;;
41333;SDS011;27078;46.428;6.256;2023-07-13T05:18:09;3.55;;;0.50;;
41333;SDS011;27078;46.428;6.256;2023-07-13T05:20:34;2.33;;;0.65;;
41333;SDS011;27078;46.428;6.256;2023-07-13T05:23:00;2.05;;;0.40;;
41333;SDS011;27078;46.428;6.256;2023-07-13T05:25:25;1.20;;;0.45;;
41333;SDS011;27078;46.428;6.256;2023-07-13T05:27:51;1.50;;;0.30;;
41333;SDS011;27078;46.428;6.256;2023-07-13T05:30:17;1.58;;;0.50;;
41333;SDS011;27078;46.428;6.256;2023-07-13T05:32:42;1.30;;;0.40;;
41333;SDS011;27078;46.428;6.256;2023-07-13T05:35:08;0.85;;;0.30;;
41333;SDS011;27078;46.428;6.256;2023-07-13T05:37:34;5.93;;;0.47;;
41333;SDS011;27078;46.428;6.256;2023-07-13T05:39:59;4.82;;;0.50;;
41333;SDS011;27078;46.428;6.256;2023-07-13T05:42:25;2.08;;;0.60;;
41333;SDS011;27078;46.428;6.256;2023-07-13T05:44:50;3.20;;;0.63;;
41333;SDS011;27078;46.428;6.256;2023-07-13T05:47:16;2.33;;;0.50;;
41333;SDS011;27078;46.428;6.256;2023-07-13T05:49:41;3.08;;;0.80;;
41333;SDS011;27078;46.428;6.256;2023-07-13T05:52:07;1.48;;;0.50;;
41333;SDS011;27078;46.428;6.256;2023-07-13T05:54:32;2.95;;;0.60;;
41333;SDS011;27078;46.428;6.256;2023-07-13T05:56:58;3.17;;;0.68;;
41333;SDS011;27078;46.428;6.256;2023-07-13T05:59:23;7.03;;;1.00;;
41333;SDS011;27078;46.428;6.256;2023-07-13T06:01:49;4.82;;;0.95;;
41333;SDS011;27078;46.428;6.256;2023-07-13T06:04:14;2.83;;;0.70;;
41333;SDS011;27078;46.428;6.256;2023-07-13T06:06:39;3.78;;;0.80;;
41333;SDS011;27078;46.428;6.256;2023-07-13T06:09:05;3.22;;;1.10;;
41333;SDS011;27078;46.428;6.256;2023-07-13T06:11:30;2.95;;;1.13;;
41333;SDS011;27078;46.428;6.256;2023-07-13T06:13:56;3.15;;;0.90;;
41333;SDS011;27078;46.428;6.256;2023-07-13T06:16:22;2.47;;;1.10;;
41333;SDS011;27078;46.428;6.256;2023-07-13T06:18:47;3.00;;;1.30;;
41333;SDS011;27078;46.428;6.256;2023-07-13T06:21:14;1.83;;;0.88;;
41333;SDS011;27078;46.428;6.256;2023-07-13T06:23:41;3.72;;;1.27;;
41333;SDS011;27078;46.428;6.256;2023-07-13T06:26:08;3.22;;;1.10;;
41333;SDS011;27078;46.428;6.256;2023-07-13T06:28:34;3.15;;;1.42;;
41333;SDS011;27078;46.428;6.256;2023-07-13T06:31:00;2.38;;;1.25;;
41333;SDS011;27078;46.428;6.256;2023-07-13T06:33:25;1.67;;;0.93;;
41333;SDS011;27078;46.428;6.256;2023-07-13T06:35:51;2.72;;;1.08;;
41333;SDS011;27078;46.428;6.256;2023-07-13T06:38:17;5.85;;;1.30;;
41333;SDS011;27078;46.428;6.256;2023-07-13T06:40:42;3.92;;;1.27;;
41333;SDS011;27078;46.428;6.256;2023-07-13T06:43:08;3.47;;;1.10;;
41333;SDS011;27078;46.428;6.256;2023-07-13T06:45:40;2.35;;;1.10;;
41333;SDS011;27078;46.428;6.256;2023-07-13T06:48:10;3.83;;;1.02;;
41333;SDS011;27078;46.428;6.256;2023-07-13T06:50:36;1.88;;;0.95;;
41333;SDS011;27078;46.428;6.256;2023-07-13T06:53:02;2.03;;;0.90;;
41333;SDS011;27078;46.428;6.256;2023-07-13T06:55:27;2.60;;;0.90;;
41333;SDS011;27078;46.428;6.256;2023-07-13T06:57:52;3.75;;;0.95;;
41333;SDS011;27078;46.428;6.256;2023-07-13T07:00:18;1.85;;;0.70;;
41333;SDS011;27078;46.428;6.256;2023-07-13T07:02:43;3.55;;;0.90;;
41333;SDS011;27078;46.428;6.256;2023-07-13T07:05:09;2.33;;;0.90;;
41333;SDS011;27078;46.428;6.256;2023-07-13T07:07:34;1.80;;;0.80;;
41333;SDS011;27078;46.428;6.256;2023-07-13T07:09:59;4.50;;;0.98;;
41333;SDS011;27078;46.428;6.256;2023-07-13T07:12:25;2.63;;;0.90;;
41333;SDS011;27078;46.428;6.256;2023-07-13T07:14:50;2.08;;;0.82;;
41333;SDS011;27078;46.428;6.256;2023-07-13T07:17:15;2.10;;;0.80;;
41333;SDS011;27078;46.428;6.256;2023-07-13T07:19:41;1.20;;;0.60;;
41333;SDS011;27078;46.428;6.256;2023-07-13T07:22:06;1.63;;;0.80;;
41333;SDS011;27078;46.428;6.256;2023-07-13T07:24:32;1.60;;;0.82;;
41333;SDS011;27078;46.428;6.256;2023-07-13T07:26:57;1.95;;;0.90;;
41333;SDS011;27078;46.428;6.256;2023-07-13T07:29:22;2.25;;;0.70;;
41333;SDS011;27078;46.428;6.256;2023-07-13T07:31:51;2.17;;;0.80;;
41333;SDS011;27078;46.428;6.256;2023-07-13T07:34:16;1.48;;;0.80;;
41333;SDS011;27078;46.428;6.256;2023-07-13T07:36:42;1.20;;;0.70;;
41333;SDS011;27078;46.428;6.256;2023-07-13T07:39:07;2.22;;;0.80;;
41333;SDS011;27078;46.428;6.256;2023-07-13T07:41:32;1.88;;;0.70;;
41333;SDS011;27078;46.428;6.256;2023-07-13T07:43:57;1.48;;;0.80;;
41333;SDS011;27078;46.428;6.256;2023-07-13T07:46:23;2.30;;;0.60;;
41333;SDS011;27078;46.428;6.256;2023-07-13T07:48:48;1.88;;;0.70;;
41333;SDS011;27078;46.428;6.256;2023-07-13T07:51:13;1.48;;;0.65;;
41333;SDS011;27078;46.428;6.256;2023-07-13T07:53:39;1.58;;;0.70;;
41333;SDS011;27078;46.428;6.256;2023-07-13T07:56:04;1.20;;;0.60;;
41333;SDS011;27078;46.428;6.256;2023-07-13T07:58:29;4.15;;;0.60;;
41333;SDS011;27078;46.428;6.256;2023-07-13T08:01:01;2.63;;;0.85;;
41333;SDS011;27078;46.428;6.256;2023-07-13T08:03:30;3.55;;;1.00;;
41333;SDS011;27078;46.428;6.256;2023-07-13T08:05:55;3.00;;;0.90;;
41333;SDS011;27078;46.428;6.256;2023-07-13T08:08:21;1.83;;;0.68;;
41333;SDS011;27078;46.428;6.256;2023-07-13T08:10:46;2.15;;;0.93;;
41333;SDS011;27078;46.428;6.256;2023-07-13T08:13:11;4.13;;;0.93;;
41333;SDS011;27078;46.428;6.256;2023-07-13T08:15:37;2.25;;;0.80;;
41333;SDS011;27078;46.428;6.256;2023-07-13T08:18:02;3.13;;;0.90;;
41333;SDS011;27078;46.428;6.256;2023-07-13T08:20:27;2.58;;;1.00;;
41333;SDS011;27078;46.428;6.256;2023-07-13T08:22:53;2.40;;;0.85;;
41333;SDS011;27078;46.428;6.256;2023-07-13T08:25:18;2.00;;;0.80;;
41333;SDS011;27078;46.428;6.256;2023-07-13T08:27:44;1.48;;;0.70;;
41333;SDS011;27078;46.428;6.256;2023-07-13T08:30:10;4.10;;;0.77;;
41333;SDS011;27078;46.428;6.256;2023-07-13T08:32:35;2.92;;;0.80;;
41333;SDS011;27078;46.428;6.256;2023-07-13T08:35:01;2.58;;;0.60;;
41333;SDS011;27078;46.428;6.256;2023-07-13T08:37:27;2.67;;;0.80;;
41333;SDS011;27078;46.428;6.256;2023-07-13T08:39:53;2.75;;;0.80;;
41333;SDS011;27078;46.428;6.256;2023-07-13T08:42:22;2.65;;;0.77;;
41333;SDS011;27078;46.428;6.256;2023-07-13T08:47:55;2.00;;;0.90;;
41333;SDS011;27078;46.428;6.256;2023-07-13T08:50:27;3.67;;;1.08;;
41333;SDS011;27078;46.428;6.256;2023-07-13T08:53:00;2.65;;;1.02;;
41333;SDS011;27078;46.428;6.256;2023-07-13T08:55:29;2.38;;;1.00;;
41333;SDS011;27078;46.428;6.256;2023-07-13T09:00:59;1.15;;;0.65;;
41333;SDS011;27078;46.428;6.256;2023-07-13T09:03:51;3.25;;;1.10;;
41333;SDS011;27078;46.428;6.256;2023-07-13T09:06:30;2.03;;;0.95;;
41333;SDS011;27078;46.428;6.256;2023-07-13T09:09:06;2.40;;;0.80;;
41333;SDS011;27078;46.428;6.256;2023-07-13T09:11:47;1.73;;;0.85;;
41333;SDS011;27078;46.428;6.256;2023-07-13T09:14:32;1.33;;;0.80;;
41333;SDS011;27078;46.428;6.256;2023-07-13T09:17:00;2.58;;;0.82;;
41333;SDS011;27078;46.428;6.256;2023-07-13T09:19:28;3.53;;;0.90;;
41333;SDS011;27078;46.428;6.256;2023-07-13T09:21:57;1.85;;;0.90;;
41333;SDS011;27078;46.428;6.256;2023-07-13T09:27:14;3.85;;;0.90;;
41333;SDS011;27078;46.428;6.256;2023-07-13T09:29:46;3.13;;;0.90;;
41333;SDS011;27078;46.428;6.256;2023-07-13T09:32:32;2.63;;;0.80;;
41333;SDS011;27078;46.428;6.256;2023-07-13T09:34:58;4.53;;;0.80;;
41333;SDS011;27078;46.428;6.256;2023-07-13T09:37:28;2.13;;;0.70;;
41333;SDS011;27078;46.428;6.256;2023-07-13T09:39:56;2.75;;;1.00;;
41333;SDS011;27078;46.428;6.256;2023-07-13T09:42:24;3.22;;;0.85;;
41333;SDS011;27078;46.428;6.256;2023-07-13T09:47:21;2.55;;;0.80;;
41333;SDS011;27078;46.428;6.256;2023-07-13T09:49:53;3.63;;;0.90;;
41333;SDS011;27078;46.428;6.256;2023-07-13T09:52:20;3.55;;;0.70;;
41333;SDS011;27078;46.428;6.256;2023-07-13T09:54:48;1.98;;;0.90;;
41333;SDS011;27078;46.428;6.256;2023-07-13T09:57:18;2.33;;;0.70;;
41333;SDS011;27078;46.428;6.256;2023-07-13T09:59:48;3.63;;;1.08;;
41333;SDS011;27078;46.428;6.256;2023-07-13T10:02:31;3.28;;;0.85;;
41333;SDS011;27078;46.428;6.256;2023-07-13T10:04:59;1.52;;;0.80;;
41333;SDS011;27078;46.428;6.256;2023-07-13T10:07:28;1.67;;;0.80;;
41333;SDS011;27078;46.428;6.256;2023-07-13T10:09:55;2.65;;;0.90;;
41333;SDS011;27078;46.428;6.256;2023-07-13T10:12:27;1.45;;;0.60;;
41333;SDS011;27078;46.428;6.256;2023-07-13T10:14:54;1.42;;;0.80;;
41333;SDS011;27078;46.428;6.256;2023-07-13T10:17:26;3.03;;;0.93;;
41333;SDS011;27078;46.428;6.256;2023-07-13T10:20:03;2.30;;;1.00;;
41333;SDS011;27078;46.428;6.256;2023-07-13T10:22:44;2.63;;;0.80;;
41333;SDS011;27078;46.428;6.256;2023-07-13T10:25:20;2.53;;;1.05;;
41333;SDS011;27078;46.428;6.256;2023-07-13T10:27:47;7.38;;;2.95;;
41333;SDS011;27078;46.428;6.256;2023-07-13T10:30:21;6.10;;;2.58;;
41333;SDS011;27078;46.428;6.256;2023-07-13T10:32:54;10.98;;;4.40;;
41333;SDS011;27078;46.428;6.256;2023-07-13T10:35:23;10.55;;;4.22;;
41333;SDS011;27078;46.428;6.256;2023-07-13T10:37:57;15.40;;;6.28;;
41333;SDS011;27078;46.428;6.256;2023-07-13T10:40:38;7.47;;;2.90;;
41333;SDS011;27078;46.428;6.256;2023-07-13T10:43:14;5.25;;;2.13;;
41333;SDS011;27078;46.428;6.256;2023-07-13T10:45:45;2.22;;;1.10;;
41333;SDS011;27078;46.428;6.256;2023-07-13T10:48:15;1.80;;;0.65;;
41333;SDS011;27078;46.428;6.256;2023-07-13T10:50:42;2.60;;;1.20;;
41333;SDS011;27078;46.428;6.256;2023-07-13T10:53:18;2.00;;;0.80;;
41333;SDS011;27078;46.428;6.256;2023-07-13T10:58:29;1.50;;;0.75;;
41333;SDS011;27078;46.428;6.256;2023-07-13T11:03:32;1.23;;;0.60;;
41333;SDS011;27078;46.428;6.256;2023-07-13T11:06:05;1.83;;;0.73;;
41333;SDS011;27078;46.428;6.256;2023-07-13T11:18:40;1.77;;;0.70;;
41333;SDS011;27078;46.428;6.256;2023-07-13T11:21:29;1.55;;;0.65;;
41333;SDS011;27078;46.428;6.256;2023-07-13T11:24:14;2.20;;;0.70;;
41333;SDS011;27078;46.428;6.256;2023-07-13T11:31:40;1.27;;;0.68;;
41333;SDS011;27078;46.428;6.256;2023-07-13T11:34:19;2.15;;;0.70;;
41333;SDS011;27078;46.428;6.256;2023-07-13T11:36:51;1.92;;;0.70;;
41333;SDS011;27078;46.428;6.256;2023-07-13T11:39:21;1.83;;;0.57;;
41333;SDS011;27078;46.428;6.256;2023-07-13T11:41:56;2.55;;;0.60;;
41333;SDS011;27078;46.428;6.256;2023-07-13T11:44:24;1.27;;;0.73;;
41333;SDS011;27078;46.428;6.256;2023-07-13T11:46:52;1.38;;;0.60;;
41333;SDS011;27078;46.428;6.256;2023-07-13T11:49:26;2.17;;;0.73;;
41333;SDS011;27078;46.428;6.256;2023-07-13T11:51:57;1.17;;;0.50;;
41333;SDS011;27078;46.428;6.256;2023-07-13T11:54:30;0.95;;;0.60;;
41333;SDS011;27078;46.428;6.256;2023-07-13T11:59:48;2.35;;;0.63;;
41333;SDS011;27078;46.428;6.256;2023-07-13T12:02:25;1.60;;;0.70;;
41333;SDS011;27078;46.428;6.256;2023-07-13T12:04:54;1.63;;;0.47;;
41333;SDS011;27078;46.428;6.256;2023-07-13T12:07:20;1.30;;;0.60;;
41333;SDS011;27078;46.428;6.256;2023-07-13T12:09:45;1.88;;;0.88;;
41333;SDS011;27078;46.428;6.256;2023-07-13T12:12:16;2.72;;;0.60;;
41333;SDS011;27078;46.428;6.256;2023-07-13T12:14:43;1.40;;;0.60;;
41333;SDS011;27078;46.428;6.256;2023-07-13T12:17:19;3.72;;;0.60;;
41333;SDS011;27078;46.428;6.256;2023-07-13T12:19:51;2.47;;;0.70;;
41333;SDS011;27078;46.428;6.256;2023-07-13T12:22:18;1.35;;;0.47;;
41333;SDS011;27078;46.428;6.256;2023-07-13T12:24:45;2.10;;;0.65;;
41333;SDS011;27078;46.428;6.256;2023-07-13T12:27:18;2.28;;;0.70;;
41333;SDS011;27078;46.428;6.256;2023-07-13T12:30:25;1.05;;;0.60;;
41333;SDS011;27078;46.428;6.256;2023-07-13T12:35:48;1.83;;;0.70;;
41333;SDS011;27078;46.428;6.256;2023-07-13T12:38:15;1.63;;;0.57;;
41333;SDS011;27078;46.428;6.256;2023-07-13T12:40:41;1.30;;;0.60;;
41333;SDS011;27078;46.428;6.256;2023-07-13T12:43:13;2.40;;;0.57;;
41333;SDS011;27078;46.428;6.256;2023-07-13T12:45:40;2.42;;;0.70;;
41333;SDS011;27078;46.428;6.256;2023-07-13T12:48:23;2.13;;;0.55;;
41333;SDS011;27078;46.428;6.256;2023-07-13T12:50:49;1.77;;;0.52;;
41333;SDS011;27078;46.428;6.256;2023-07-13T12:53:16;1.20;;;0.60;;
41333;SDS011;27078;46.428;6.256;2023-07-13T12:55:50;1.45;;;0.52;;
41333;SDS011;27078;46.428;6.256;2023-07-13T12:58:26;1.90;;;0.52;;
41333;SDS011;27078;46.428;6.256;2023-07-13T13:00:56;1.80;;;0.57;;
41333;SDS011;27078;46.428;6.256;2023-07-13T13:03:26;1.95;;;0.57;;
41333;SDS011;27078;46.428;6.256;2023-07-13T13:08:55;1.20;;;0.60;;
41333;SDS011;27078;46.428;6.256;2023-07-13T13:11:26;2.35;;;0.60;;
41333;SDS011;27078;46.428;6.256;2023-07-13T13:13:56;3.80;;;0.80;;
41333;SDS011;27078;46.428;6.256;2023-07-13T13:18:49;2.67;;;0.60;;
41333;SDS011;27078;46.428;6.256;2023-07-13T13:21:16;2.33;;;0.75;;
41333;SDS011;27078;46.428;6.256;2023-07-13T13:23:43;1.35;;;0.70;;
41333;SDS011;27078;46.428;6.256;2023-07-13T13:26:13;1.40;;;0.60;;
41333;SDS011;27078;46.428;6.256;2023-07-13T13:28:43;2.53;;;0.70;;
41333;SDS011;27078;46.428;6.256;2023-07-13T13:31:09;5.32;;;0.50;;
41333;SDS011;27078;46.428;6.256;2023-07-13T13:33:37;2.70;;;0.63;;
41333;SDS011;27078;46.428;6.256;2023-07-13T13:36:09;1.60;;;0.70;;
41333;SDS011;27078;46.428;6.256;2023-07-13T13:38:40;2.42;;;0.85;;
41333;SDS011;27078;46.428;6.256;2023-07-13T13:41:07;1.10;;;0.50;;
41333;SDS011;27078;46.428;6.256;2023-07-13T13:43:35;2.22;;;0.60;;
41333;SDS011;27078;46.428;6.256;2023-07-13T13:46:00;1.17;;;0.50;;
41333;SDS011;27078;46.428;6.256;2023-07-13T13:48:32;2.13;;;0.60;;
41333;SDS011;27078;46.428;6.256;2023-07-13T13:51:01;1.50;;;0.50;;
41333;SDS011;27078;46.428;6.256;2023-07-13T13:53:31;1.20;;;0.60;;
41333;SDS011;27078;46.428;6.256;2023-07-13T13:55:56;3.47;;;0.85;;
41333;SDS011;27078;46.428;6.256;2023-07-13T13:58:21;6.25;;;0.70;;
41333;SDS011;27078;46.428;6.256;2023-07-13T14:00:47;6.63;;;0.70;;
41333;SDS011;27078;46.428;6.256;2023-07-13T14:03:20;2.60;;;0.52;;
41333;SDS011;27078;46.428;6.256;2023-07-13T14:05:47;1.73;;;0.52;;
41333;SDS011;27078;46.428;6.256;2023-07-13T14:08:14;2.72;;;0.60;;
41333;SDS011;27078;46.428;6.256;2023-07-13T14:10:41;5.90;;;0.75;;
41333;SDS011;27078;46.428;6.256;2023-07-13T14:13:09;2.30;;;0.60;;
41333;SDS011;27078;46.428;6.256;2023-07-13T14:15:51;1.40;;;0.50;;
41333;SDS011;27078;46.428;6.256;2023-07-13T14:18:17;1.10;;;0.60;;
41333;SDS011;27078;46.428;6.256;2023-07-13T14:20:43;1.00;;;0.60;;
41333;SDS011;27078;46.428;6.256;2023-07-13T14:23:10;3.35;;;0.57;;
41333;SDS011;27078;46.428;6.256;2023-07-13T14:25:36;2.53;;;0.50;;
41333;SDS011;27078;46.428;6.256;2023-07-13T14:28:04;1.15;;;0.50;;
41333;SDS011;27078;46.428;6.256;2023-07-13T14:30:46;1.73;;;0.60;;
41333;SDS011;27078;46.428;6.256;2023-07-13T14:33:12;1.77;;;0.45;;
41333;SDS011;27078;46.428;6.256;2023-07-13T14:35:37;2.55;;;0.70;;
41333;SDS011;27078;46.428;6.256;2023-07-13T14:38:03;2.40;;;0.70;;
41333;SDS011;27078;46.428;6.256;2023-07-13T14:40:30;5.82;;;0.77;;
41333;SDS011;27078;46.428;6.256;2023-07-13T14:42:56;2.60;;;0.60;;
41333;SDS011;27078;46.428;6.256;2023-07-13T14:45:22;2.10;;;0.47;;
41333;SDS011;27078;46.428;6.256;2023-07-13T14:47:47;1.20;;;0.60;;
41333;SDS011;27078;46.428;6.256;2023-07-13T14:50:14;1.80;;;0.45;;
41333;SDS011;27078;46.428;6.256;2023-07-13T14:52:40;3.08;;;0.85;;
41333;SDS011;27078;46.428;6.256;2023-07-13T14:55:13;1.65;;;0.52;;
41333;SDS011;27078;46.428;6.256;2023-07-13T14:57:40;2.70;;;0.50;;
41333;SDS011;27078;46.428;6.256;2023-07-13T15:00:16;1.77;;;0.50;;
41333;SDS011;27078;46.428;6.256;2023-07-13T15:02:54;1.52;;;0.50;;
41333;SDS011;27078;46.428;6.256;2023-07-13T15:05:29;2.58;;;0.70;;
41333;SDS011;27078;46.428;6.256;2023-07-13T15:07:57;1.15;;;0.60;;
41333;SDS011;27078;46.428;6.256;2023-07-13T15:10:31;1.08;;;0.50;;
41333;SDS011;27078;46.428;6.256;2023-07-13T15:13:04;1.90;;;0.70;;
41333;SDS011;27078;46.428;6.256;2023-07-13T15:15:43;1.30;;;0.57;;
41333;SDS011;27078;46.428;6.256;2023-07-13T15:18:11;1.80;;;0.60;;
41333;SDS011;27078;46.428;6.256;2023-07-13T15:20:38;2.40;;;0.60;;
41333;SDS011;27078;46.428;6.256;2023-07-13T15:23:04;1.10;;;0.50;;
41333;SDS011;27078;46.428;6.256;2023-07-13T15:25:30;3.05;;;0.50;;
41333;SDS011;27078;46.428;6.256;2023-07-13T15:27:58;1.70;;;0.50;;
41333;SDS011;27078;46.428;6.256;2023-07-13T15:30:27;1.10;;;0.57;;
41333;SDS011;27078;46.428;6.256;2023-07-13T15:32:55;1.77;;;0.50;;
41333;SDS011;27078;46.428;6.256;2023-07-13T15:35:24;2.72;;;0.60;;
41333;SDS011;27078;46.428;6.256;2023-07-13T15:37:50;2.33;;;0.40;;
41333;SDS011;27078;46.428;6.256;2023-07-13T15:40:16;1.20;;;0.55;;